Time;durP1;ratioP1;P1;durP2;ratioP2;P2;SDS_P1;SDS_P2;PMS_P1;PMS_P2;Temp;Humidity;BMP_temperature;BMP_pressure;BME280_temperature;BME280_humidity;BME280_pressure;Samples;Min_cycle;Max_cycle;Signal;HPM_P1;HPM_P2
2023/03/08 00:01:36;;;;;;;12.80;6.07;;;5.60;57.10;;;;;;4968324;28;20038;-61
2023/03/08 00:04:02;;;;;;;13.00;7.13;;;5.60;57.20;;;;;;4966427;28;21190;-59
2023/03/08 00:06:28;;;;;;;11.48;6.72;;;5.60;57.20;;;;;;4972402;28;20556;-58
2023/03/08 00:08:58;;;;;;;11.55;5.95;;;5.60;57.20;;;;;;4967113;28;20038;-58
2023/03/08 00:11:25;;;;;;;10.27;6.07;;;5.60;57.20;;;;;;4968825;28;20066;-58
2023/03/08 00:13:51;;;;;;;10.73;6.20;;;5.50;57.20;;;;;;4970367;28;20034;-59
2023/03/08 00:16:16;;;;;;;10.60;5.93;;;5.50;57.20;;;;;;4969494;28;20038;-58
2023/03/08 00:18:42;;;;;;;10.40;5.72;;;5.50;57.20;;;;;;4966315;28;20081;-57
2023/03/08 00:21:11;;;;;;;10.77;5.90;;;5.60;57.30;;;;;;4968416;28;20031;-60
2023/03/08 00:23:36;;;;;;;9.45;5.55;;;5.50;57.30;;;;;;4966810;28;20106;-61
2023/03/08 00:26:03;;;;;;;9.65;5.97;;;5.50;57.30;;;;;;4959594;28;20039;-61
2023/03/08 00:28:29;;;;;;;9.98;5.97;;;5.50;57.40;;;;;;4962671;28;20048;-61
2023/03/08 00:30:59;;;;;;;9.38;5.60;;;5.50;57.40;;;;;;4967826;28;20414;-60
2023/03/08 00:33:26;;;;;;;9.27;5.82;;;5.50;57.40;;;;;;4964432;28;20442;-61
2023/03/08 00:36:00;;;;;;;13.02;6.05;;;5.50;57.40;;;;;;4972405;28;20050;-60
2023/03/08 00:38:27;;;;;;;13.02;6.03;;;5.50;57.40;;;;;;4965063;28;20166;-61
2023/03/08 00:40:52;;;;;;;10.52;5.97;;;5.50;57.50;;;;;;4964871;28;20047;-61
2023/03/08 00:43:18;;;;;;;8.98;5.40;;;5.50;57.50;;;;;;4973703;28;20043;-57
2023/03/08 00:45:45;;;;;;;10.15;5.50;;;5.50;57.50;;;;;;4973308;28;20042;-60
2023/03/08 00:48:10;;;;;;;10.00;5.82;;;5.40;57.50;;;;;;4974811;28;20042;-58
2023/03/08 00:50:36;;;;;;;11.45;5.78;;;5.40;57.50;;;;;;4970026;28;20041;-60
2023/03/08 00:53:02;;;;;;;10.57;6.43;;;5.40;57.50;;;;;;4971168;28;20264;-59
2023/03/08 00:55:27;;;;;;;9.40;6.05;;;5.40;57.50;;;;;;4976578;28;20038;-59
2023/03/08 00:57:53;;;;;;;11.38;6.28;;;5.40;57.60;;;;;;4974618;28;20035;-59
2023/03/08 01:00:18;;;;;;;10.18;5.85;;;5.40;57.60;;;;;;4959885;28;20039;-57
2023/03/08 01:02:44;;;;;;;11.52;6.43;;;5.40;57.70;;;;;;4969955;28;20030;-60
2023/03/08 01:05:10;;;;;;;11.65;6.53;;;5.40;57.80;;;;;;4965592;28;20047;-56
2023/03/08 01:07:35;;;;;;;9.98;6.40;;;5.40;57.80;;;;;;4968169;28;20074;-59
2023/03/08 01:10:04;;;;;;;12.05;6.88;;;5.30;57.80;;;;;;4972054;28;20100;-55
2023/03/08 01:12:31;;;;;;;11.15;6.55;;;5.30;57.90;;;;;;4959788;28;20094;-59
2023/03/08 01:14:57;;;;;;;10.88;6.53;;;5.30;57.90;;;;;;4966192;28;20453;-59
2023/03/08 01:17:22;;;;;;;10.73;6.20;;;5.30;58.00;;;;;;4963938;28;20023;-58
2023/03/08 01:19:48;;;;;;;10.55;6.15;;;5.30;58.00;;;;;;4964441;28;20038;-61
2023/03/08 01:22:14;;;;;;;10.43;6.60;;;5.30;58.10;;;;;;4966521;28;20035;-59
2023/03/08 01:24:44;;;;;;;11.18;6.63;;;5.30;58.10;;;;;;4959413;28;20259;-55
2023/03/08 01:27:09;;;;;;;10.43;6.53;;;5.30;58.20;;;;;;4960426;28;20062;-60
2023/03/08 01:29:35;;;;;;;11.25;6.43;;;5.20;58.20;;;;;;4959086;28;20146;-60
2023/03/08 01:32:01;;;;;;;11.77;6.47;;;5.20;58.20;;;;;;4965312;28;20069;-61
2023/03/08 01:34:26;;;;;;;10.45;6.20;;;5.20;58.20;;;;;;4967915;28;20038;-60
2023/03/08 01:36:52;;;;;;;11.90;6.45;;;5.20;58.30;;;;;;4965585;28;20058;-60
2023/03/08 01:39:17;;;;;;;10.07;6.07;;;5.20;58.40;;;;;;4965025;28;20036;-60
2023/03/08 01:41:43;;;;;;;10.60;6.30;;;5.10;58.40;;;;;;4973912;28;20086;-60
2023/03/08 01:44:17;;;;;;;9.57;5.75;;;5.10;58.50;;;;;;4970520;28;20529;-61
2023/03/08 01:46:43;;;;;;;13.30;6.32;;;5.10;58.50;;;;;;4969720;28;20129;-60
2023/03/08 01:49:26;;;;;;;12.95;7.07;;;5.10;58.60;;;;;;4973588;28;20037;-60
2023/03/08 01:52:05;;;;;;;10.82;6.40;;;5.10;58.70;;;;;;4972668;28;20037;-61
2023/03/08 01:55:00;;;;;;;11.63;6.85;;;5.00;58.80;;;;;;4952337;28;20118;-61
2023/03/08 01:57:31;;;;;;;12.60;6.90;;;5.10;59.00;;;;;;4962285;28;20062;-60
2023/03/08 02:00:04;;;;;;;13.77;6.72;;;5.00;58.90;;;;;;4966415;28;20050;-58
2023/03/08 02:02:35;;;;;;;11.73;6.63;;;5.00;59.00;;;;;;4963207;28;20481;-61
2023/03/08 02:05:01;;;;;;;13.27;7.60;;;5.00;59.00;;;;;;4969577;28;20031;-59
2023/03/08 02:07:26;;;;;;;12.20;7.03;;;5.00;59.10;;;;;;4970678;28;20030;-61
2023/03/08 02:09:52;;;;;;;14.40;7.78;;;5.00;59.00;;;;;;4971019;28;20502;-60
2023/03/08 02:12:19;;;;;;;13.63;6.47;;;5.00;59.10;;;;;;4966499;28;20034;-60
2023/03/08 02:14:45;;;;;;;12.57;6.63;;;5.00;59.20;;;;;;4936012;28;20039;-60
2023/03/08 02:17:10;;;;;;;13.88;7.60;;;5.00;59.20;;;;;;4968169;28;20034;-61
2023/03/08 02:20:11;;;;;;;13.52;7.47;;;4.90;59.20;;;;;;4968674;28;20034;-59
2023/03/08 02:22:41;;;;;;;12.20;7.05;;;4.90;59.50;;;;;;4955778;28;20033;-60
2023/03/08 02:25:18;;;;;;;14.93;7.95;;;4.90;59.40;;;;;;4969686;28;21476;-60
2023/03/08 02:27:44;;;;;;;12.63;7.35;;;4.90;59.60;;;;;;4966927;28;20067;-56
2023/03/08 02:30:11;;;;;;;12.55;7.63;;;4.80;59.60;;;;;;4965396;28;20092;-60
2023/03/08 02:32:37;;;;;;;12.82;7.47;;;4.80;59.70;;;;;;4973008;28;20034;-59
2023/03/08 02:35:03;;;;;;;13.02;7.40;;;4.80;59.80;;;;;;4963920;28;20050;-56
2023/03/08 02:37:30;;;;;;;16.27;8.02;;;4.70;59.80;;;;;;4968715;28;20042;-60
2023/03/08 02:39:56;;;;;;;14.85;8.55;;;4.80;59.90;;;;;;4971698;28;20034;-56
2023/03/08 02:42:21;;;;;;;15.10;8.52;;;4.70;60.00;;;;;;4976030;28;20268;-56
2023/03/08 02:44:47;;;;;;;14.20;7.53;;;4.70;60.20;;;;;;4976507;28;20034;-60
2023/03/08 02:47:13;;;;;;;14.20;7.93;;;4.70;60.20;;;;;;4972642;28;20039;-59
2023/03/08 02:49:38;;;;;;;15.50;9.02;;;4.60;60.50;;;;;;4977439;28;20118;-60
2023/03/08 02:52:04;;;;;;;16.20;8.80;;;4.60;60.60;;;;;;4977046;28;20130;-59
2023/03/08 02:54:29;;;;;;;13.48;8.18;;;4.60;60.90;;;;;;4966026;28;20537;-60
2023/03/08 02:56:55;;;;;;;16.98;9.25;;;4.60;60.90;;;;;;4964740;28;20133;-60
2023/03/08 02:59:20;;;;;;;14.45;8.90;;;4.60;61.10;;;;;;4969756;28;20137;-59
2023/03/08 03:01:46;;;;;;;14.23;8.40;;;4.60;61.10;;;;;;4969418;28;20094;-59
2023/03/08 03:04:12;;;;;;;14.90;8.57;;;4.60;61.30;;;;;;4958190;28;20050;-59
2023/03/08 03:06:37;;;;;;;18.23;9.02;;;4.60;61.40;;;;;;4970656;28;21017;-59
2023/03/08 03:09:10;;;;;;;17.45;8.93;;;4.60;61.40;;;;;;4969989;28;20038;-61
2023/03/08 03:11:36;;;;;;;18.20;9.13;;;4.50;61.60;;;;;;4964442;28;20027;-58
2023/03/08 03:14:02;;;;;;;16.10;8.75;;;4.50;61.40;;;;;;4966558;28;20042;-60
2023/03/08 03:16:28;;;;;;;18.33;9.15;;;4.50;61.60;;;;;;4966422;28;20511;-58
2023/03/08 03:18:55;;;;;;;16.00;9.35;;;4.50;61.60;;;;;;4972823;28;20126;-59
2023/03/08 03:21:21;;;;;;;17.73;9.65;;;4.50;61.70;;;;;;4970106;28;20039;-58
2023/03/08 03:23:47;;;;;;;20.45;9.18;;;4.50;62.00;;;;;;4962530;28;20230;-59
2023/03/08 03:26:18;;;;;;;20.02;9.77;;;4.50;62.00;;;;;;4962502;28;21053;-59
2023/03/08 03:28:44;;;;;;;17.25;9.35;;;4.50;62.20;;;;;;4968648;28;20458;-60
2023/03/08 03:31:16;;;;;;;17.08;9.57;;;4.60;62.00;;;;;;4972410;28;20046;-61
2023/03/08 03:33:42;;;;;;;19.45;9.95;;;4.60;62.30;;;;;;4971973;28;20058;-60
2023/03/08 03:36:10;;;;;;;20.70;10.77;;;4.50;62.30;;;;;;4973772;28;20045;-60
2023/03/08 03:38:36;;;;;;;19.42;10.30;;;4.50;62.30;;;;;;4967701;28;20081;-60
2023/03/08 03:41:04;;;;;;;18.48;9.80;;;4.50;62.50;;;;;;4974108;28;20366;-60
2023/03/08 03:43:30;;;;;;;17.67;9.75;;;4.60;62.70;;;;;;4974849;28;20319;-56
2023/03/08 03:45:57;;;;;;;19.50;10.23;;;4.50;62.60;;;;;;4966011;28;20142;-59
2023/03/08 03:48:23;;;;;;;18.48;10.52;;;4.50;63.50;;;;;;4972030;28;20041;-58
2023/03/08 03:51:00;;;;;;;22.00;9.98;;;4.50;63.00;;;;;;4968208;28;20034;-59
2023/03/08 03:53:27;;;;;;;18.08;9.93;;;4.50;63.30;;;;;;4970156;28;20034;-59
2023/03/08 03:55:53;;;;;;;21.00;10.07;;;4.50;63.20;;;;;;4963806;28;20039;-58
2023/03/08 03:58:19;;;;;;;18.17;10.40;;;4.50;63.20;;;;;;4966242;28;20030;-60
2023/03/08 04:00:44;;;;;;;16.88;9.48;;;4.50;63.20;;;;;;4962935;28;20041;-59
2023/03/08 04:03:10;;;;;;;18.02;9.90;;;4.60;63.20;;;;;;4971523;28;20457;-59
2023/03/08 04:05:36;;;;;;;18.00;9.45;;;4.50;63.20;;;;;;4963100;28;20542;-59
2023/03/08 04:08:02;;;;;;;17.23;9.65;;;4.50;63.30;;;;;;4963586;28;20042;-61
2023/03/08 04:10:28;;;;;;;20.33;10.02;;;4.50;63.30;;;;;;4966175;28;20050;-60
2023/03/08 04:12:53;;;;;;;22.38;11.18;;;4.50;63.30;;;;;;4964285;28;20503;-60
2023/03/08 04:15:19;;;;;;;22.33;11.07;;;4.50;63.30;;;;;;4959989;28;20043;-61
2023/03/08 04:17:44;;;;;;;20.73;11.45;;;4.50;63.40;;;;;;4967072;28;20029;-61
2023/03/08 04:20:10;;;;;;;19.02;10.23;;;4.60;63.50;;;;;;4972653;28;20034;-59
2023/03/08 04:22:36;;;;;;;20.45;10.88;;;4.60;63.60;;;;;;4967369;28;20053;-56
2023/03/08 04:25:03;;;;;;;22.90;10.52;;;4.60;63.50;;;;;;4959451;28;20486;-60
2023/03/08 04:27:28;;;;;;;19.30;10.77;;;4.70;63.50;;;;;;4962720;28;20122;-59
2023/03/08 04:29:54;;;;;;;19.88;10.90;;;4.70;63.40;;;;;;4965339;28;20125;-61
2023/03/08 04:32:19;;;;;;;22.33;10.90;;;4.70;63.50;;;;;;4967060;28;20069;-56
2023/03/08 04:34:45;;;;;;;19.30;10.32;;;4.70;63.40;;;;;;4969787;28;20050;-59
2023/03/08 04:37:11;;;;;;;21.30;10.43;;;4.70;63.50;;;;;;4960636;28;20066;-59
2023/03/08 04:39:37;;;;;;;21.67;11.07;;;4.70;63.70;;;;;;4966341;28;20034;-60
2023/03/08 04:42:03;;;;;;;19.90;10.75;;;4.70;63.70;;;;;;4968611;28;20499;-60
2023/03/08 04:44:29;;;;;;;20.75;10.30;;;4.70;63.70;;;;;;4965837;28;20580;-59
2023/03/08 04:46:54;;;;;;;18.67;10.85;;;4.60;63.80;;;;;;4965758;28;20040;-60
2023/03/08 04:49:20;;;;;;;20.48;11.23;;;4.60;63.90;;;;;;4968862;28;20048;-59
2023/03/08 04:51:46;;;;;;;19.27;10.52;;;4.60;64.00;;;;;;4968002;28;20066;-59
2023/03/08 04:54:11;;;;;;;30.70;18.38;;;4.70;64.20;;;;;;4961601;28;20430;-60
2023/03/08 04:56:37;;;;;;;22.50;13.02;;;4.70;64.20;;;;;;4963326;28;20494;-62
2023/03/08 04:59:03;;;;;;;19.17;10.43;;;4.70;64.20;;;;;;4966467;28;20040;-60
2023/03/08 05:01:29;;;;;;;24.38;12.18;;;4.70;64.20;;;;;;4959658;28;20125;-60
2023/03/08 05:03:54;;;;;;;20.48;11.27;;;4.70;64.20;;;;;;4961320;28;20042;-59
2023/03/08 05:06:22;;;;;;;19.15;11.23;;;4.80;64.10;;;;;;4964112;28;20043;-61
2023/03/08 05:08:48;;;;;;;21.77;11.82;;;4.80;64.20;;;;;;4968213;28;20035;-59
2023/03/08 05:11:22;;;;;;;22.75;11.63;;;4.80;64.20;;;;;;4963605;28;20058;-60
2023/03/08 05:13:48;;;;;;;24.25;13.02;;;4.80;64.40;;;;;;4965486;28;20283;-61
2023/03/08 05:16:14;;;;;;;25.25;13.48;;;4.80;64.40;;;;;;4958337;28;20043;-60
2023/03/08 05:18:40;;;;;;;22.27;12.27;;;4.80;64.40;;;;;;4967236;28;20163;-60
2023/03/08 05:21:10;;;;;;;27.17;12.25;;;4.80;64.60;;;;;;4962253;28;20038;-60
2023/03/08 05:23:36;;;;;;;21.95;12.23;;;4.80;64.70;;;;;;4959654;28;20481;-60
2023/03/08 05:26:04;;;;;;;19.77;11.50;;;4.80;64.70;;;;;;4961634;28;20125;-60
2023/03/08 05:28:32;;;;;;;24.55;12.27;;;4.90;64.80;;;;;;4966454;28;20038;-60
2023/03/08 05:31:11;;;;;;;22.95;11.98;;;4.90;64.90;;;;;;4974611;28;20053;-60
2023/03/08 05:33:37;;;;;;;22.10;11.68;;;4.90;65.10;;;;;;4971389;28;20126;-59
2023/03/08 05:36:03;;;;;;;25.38;12.15;;;4.90;64.90;;;;;;4973412;28;20119;-60
2023/03/08 05:38:29;;;;;;;19.48;11.20;;;4.90;64.90;;;;;;4972136;28;20574;-59
2023/03/08 05:41:02;;;;;;;21.83;11.45;;;5.00;64.90;;;;;;4973026;28;20152;-61
2023/03/08 05:43:28;;;;;;;20.52;11.55;;;5.00;65.10;;;;;;4973287;28;20034;-59
2023/03/08 05:45:59;;;;;;;22.27;12.15;;;5.00;64.90;;;;;;4970298;28;20031;-59
2023/03/08 05:48:25;;;;;;;20.65;11.20;;;5.00;65.10;;;;;;4972058;28;20035;-60
2023/03/08 05:50:51;;;;;;;23.90;11.45;;;5.00;64.90;;;;;;4974237;28;20371;-60
2023/03/08 05:53:17;;;;;;;24.10;11.55;;;5.00;64.90;;;;;;4973411;28;20047;-60
2023/03/08 05:55:43;;;;;;;20.42;11.52;;;5.10;65.10;;;;;;4973357;28;20035;-59
2023/03/08 05:58:08;;;;;;;22.13;11.90;;;5.10;65.10;;;;;;4973446;28;20042;-58
2023/03/08 06:00:34;;;;;;;21.42;12.50;;;5.10;65.90;;;;;;4973546;28;20065;-61
2023/03/08 06:03:02;;;;;;;25.10;12.27;;;5.10;65.10;;;;;;4972863;28;20078;-57
2023/03/08 06:05:28;;;;;;;22.48;11.82;;;5.10;65.10;;;;;;4972732;28;20046;-60
2023/03/08 06:07:54;;;;;;;24.52;12.00;;;5.10;65.20;;;;;;4973767;28;20046;-59
2023/03/08 06:10:20;;;;;;;21.75;12.50;;;5.10;65.10;;;;;;4971105;28;20410;-59
2023/03/08 06:12:46;;;;;;;26.00;13.52;;;5.10;66.00;;;;;;4973898;28;20118;-61
2023/03/08 06:15:12;;;;;;;30.23;13.73;;;5.10;65.30;;;;;;4973860;28;20046;-58
2023/03/08 06:17:38;;;;;;;22.50;12.00;;;5.10;65.20;;;;;;4971312;28;20558;-59
2023/03/08 06:20:04;;;;;;;33.85;12.82;;;5.10;65.30;;;;;;4969630;28;20554;-59
2023/03/08 06:22:29;;;;;;;28.10;13.82;;;5.10;65.40;;;;;;4973232;28;20038;-58
2023/03/08 06:24:55;;;;;;;26.42;13.50;;;5.20;65.60;;;;;;4971547;28;20034;-56
2023/03/08 06:27:20;;;;;;;28.42;13.43;;;5.20;65.60;;;;;;4973021;28;21266;-58
2023/03/08 06:29:47;;;;;;;28.50;12.68;;;5.10;65.70;;;;;;4972339;28;20037;-60
2023/03/08 06:32:13;;;;;;;25.13;12.80;;;5.20;65.90;;;;;;4973131;28;20034;-59
2023/03/08 06:34:39;;;;;;;24.80;12.50;;;5.20;66.70;;;;;;4973182;28;20030;-60
2023/03/08 06:37:04;;;;;;;24.30;12.85;;;5.20;65.90;;;;;;4972711;28;20054;-60
2023/03/08 06:39:30;;;;;;;23.95;12.98;;;5.20;66.20;;;;;;4970125;28;20109;-58
2023/03/08 06:41:56;;;;;;;22.17;12.88;;;5.20;65.90;;;;;;4972452;28;20277;-59
2023/03/08 06:44:22;;;;;;;24.00;12.50;;;5.20;66.00;;;;;;4974775;28;20038;-58
2023/03/08 06:46:48;;;;;;;22.30;11.98;;;5.20;66.10;;;;;;4973823;28;20030;-58
2023/03/08 06:49:13;;;;;;;27.15;12.68;;;5.20;66.00;;;;;;4975968;28;20566;-60
2023/03/08 06:51:39;;;;;;;21.40;11.70;;;5.20;66.10;;;;;;4976092;28;20037;-59
2023/03/08 06:54:05;;;;;;;20.13;11.30;;;5.30;66.20;;;;;;4975945;28;20506;-60
2023/03/08 06:56:30;;;;;;;26.60;11.88;;;5.30;66.10;;;;;;4977257;28;20042;-61
2023/03/08 06:58:56;;;;;;;22.52;12.00;;;5.30;66.30;;;;;;4976174;28;20042;-60
2023/03/08 07:01:21;;;;;;;20.70;11.88;;;5.40;66.20;;;;;;4976197;28;20129;-58
2023/03/08 07:03:47;;;;;;;21.98;12.13;;;5.40;66.30;;;;;;4977241;28;20046;-60
2023/03/08 07:06:14;;;;;;;21.58;12.00;;;5.40;66.20;;;;;;4977458;28;20050;-58
2023/03/08 07:08:39;;;;;;;22.40;11.55;;;5.50;66.40;;;;;;4975695;28;20042;-56
2023/03/08 07:11:07;;;;;;;24.10;12.20;;;5.50;66.50;;;;;;4976637;28;20040;-59
2023/03/08 07:13:33;;;;;;;20.20;11.38;;;5.50;66.30;;;;;;4976299;28;20494;-59
2023/03/08 07:15:58;;;;;;;18.55;11.15;;;5.60;66.50;;;;;;4975401;28;20099;-61
2023/03/08 07:18:24;;;;;;;20.42;10.95;;;5.60;66.30;;;;;;4973055;28;20042;-58
2023/03/08 07:20:56;;;;;;;23.20;11.02;;;5.60;66.40;;;;;;4976402;28;20486;-59
2023/03/08 07:23:22;;;;;;;23.48;11.05;;;5.70;66.60;;;;;;4976112;28;20072;-59
2023/03/08 07:25:48;;;;;;;21.48;11.60;;;5.70;66.50;;;;;;4974477;28;20583;-60
2023/03/08 07:28:13;;;;;;;17.77;10.85;;;5.80;66.50;;;;;;4973703;28;20130;-61
2023/03/08 07:30:39;;;;;;;18.63;10.70;;;5.80;66.50;;;;;;4976018;28;20042;-60
2023/03/08 07:33:05;;;;;;;19.05;10.50;;;5.90;66.40;;;;;;4977013;28;20042;-60
2023/03/08 07:35:30;;;;;;;19.45;10.25;;;5.90;66.30;;;;;;4976840;28;20122;-60
2023/03/08 07:37:56;;;;;;;18.17;10.48;;;5.90;66.30;;;;;;4975455;28;20066;-60
2023/03/08 07:40:22;;;;;;;16.58;10.23;;;6.00;67.20;;;;;;4975323;28;20046;-60
2023/03/08 07:42:47;;;;;;;20.23;10.85;;;6.00;66.30;;;;;;4976289;28;20046;-60
2023/03/08 07:45:14;;;;;;;20.23;9.98;;;6.10;66.50;;;;;;4975239;28;20117;-59
2023/03/08 07:47:39;;;;;;;18.70;10.55;;;6.10;66.40;;;;;;4976195;28;20507;-61
2023/03/08 07:50:06;;;;;;;18.80;10.15;;;6.10;66.40;;;;;;4976286;28;20074;-59
2023/03/08 07:52:32;;;;;;;19.10;10.65;;;6.20;66.30;;;;;;4972520;28;20031;-59
2023/03/08 07:54:58;;;;;;;18.15;10.07;;;6.20;66.30;;;;;;4975014;28;20038;-60
2023/03/08 07:57:23;;;;;;;21.65;10.27;;;6.30;66.30;;;;;;4975315;28;20046;-61
2023/03/08 07:59:49;;;;;;;17.80;10.15;;;6.30;66.10;;;;;;4975352;28;20065;-58
2023/03/08 08:02:16;;;;;;;17.00;10.38;;;6.40;66.10;;;;;;4973662;28;20026;-60
2023/03/08 08:04:42;;;;;;;15.90;9.25;;;6.40;66.10;;;;;;4973750;28;20407;-60
2023/03/08 08:07:12;;;;;;;18.15;9.38;;;6.40;66.10;;;;;;4976477;28;20458;-60
2023/03/08 08:09:38;;;;;;;21.65;9.98;;;6.40;66.00;;;;;;4972781;28;20121;-59
2023/03/08 08:12:05;;;;;;;19.25;10.05;;;6.40;66.00;;;;;;4975387;28;20529;-60
2023/03/08 08:14:31;;;;;;;14.30;9.57;;;6.50;66.10;;;;;;4976423;28;20034;-61
2023/03/08 08:16:56;;;;;;;13.35;8.55;;;6.50;66.00;;;;;;4972299;28;20043;-58
2023/03/08 08:19:22;;;;;;;19.58;9.23;;;6.50;66.70;;;;;;4973435;28;20050;-57
2023/03/08 08:21:48;;;;;;;14.35;9.07;;;6.50;65.80;;;;;;4974947;28;20038;-59
2023/03/08 08:24:14;;;;;;;15.55;9.07;;;6.60;65.90;;;;;;4974060;28;20081;-59
2023/03/08 08:26:40;;;;;;;14.25;8.40;;;6.60;65.90;;;;;;4975124;28;20055;-60
2023/03/08 08:29:06;;;;;;;13.93;8.32;;;6.60;66.00;;;;;;4975397;28;20122;-60
2023/03/08 08:31:31;;;;;;;14.13;8.25;;;6.60;66.00;;;;;;4975802;28;20096;-59
2023/03/08 08:33:58;;;;;;;14.90;8.27;;;6.60;65.80;;;;;;4975855;28;20078;-58
2023/03/08 08:36:24;;;;;;;14.85;8.80;;;6.70;65.90;;;;;;4975000;28;20465;-60
2023/03/08 08:38:50;;;;;;;15.57;8.80;;;6.70;65.90;;;;;;4974929;28;20109;-60
2023/03/08 08:41:18;;;;;;;13.57;8.07;;;6.70;65.90;;;;;;4974891;28;20027;-57
2023/03/08 08:43:45;;;;;;;13.00;8.27;;;6.80;65.80;;;;;;4974903;28;20031;-60
2023/03/08 08:46:12;;;;;;;14.70;8.02;;;6.80;65.70;;;;;;4971179;28;20308;-57
2023/03/08 08:48:38;;;;;;;13.57;8.13;;;6.80;65.70;;;;;;4974642;28;20035;-59
2023/03/08 08:51:05;;;;;;;13.98;8.55;;;6.80;65.90;;;;;;4975801;28;20065;-58
2023/03/08 08:53:31;;;;;;;11.93;7.93;;;6.90;66.00;;;;;;4975389;28;20561;-58
2023/03/08 08:55:57;;;;;;;13.52;8.48;;;6.90;66.00;;;;;;4970770;28;20043;-60
2023/03/08 08:58:23;;;;;;;12.20;8.10;;;7.00;66.00;;;;;;4973476;28;20506;-60
2023/03/08 09:00:48;;;;;;;12.68;8.25;;;7.00;66.10;;;;;;4971929;28;20038;-58
2023/03/08 09:03:14;;;;;;;12.63;8.23;;;7.10;65.90;;;;;;4972009;28;20125;-60
2023/03/08 09:05:42;;;;;;;13.95;8.10;;;7.10;65.80;;;;;;4975663;28;20203;-59
2023/03/08 09:08:08;;;;;;;13.27;8.05;;;7.20;65.70;;;;;;4974673;28;20034;-57
2023/03/08 09:10:36;;;;;;;12.25;7.75;;;7.20;65.60;;;;;;4975533;28;20101;-61
2023/03/08 09:13:02;;;;;;;16.13;8.32;;;7.30;65.40;;;;;;4975524;28;20042;-55
2023/03/08 09:15:28;;;;;;;12.50;7.90;;;7.30;65.30;;;;;;4974887;28;20525;-59
2023/03/08 09:17:54;;;;;;;15.10;8.43;;;7.30;65.20;;;;;;4973938;28;20066;-57
2023/03/08 09:20:20;;;;;;;16.10;8.23;;;7.40;65.20;;;;;;4976332;28;20105;-56
2023/03/08 09:22:46;;;;;;;13.43;7.63;;;7.40;65.20;;;;;;4975378;28;20057;-60
2023/03/08 09:25:12;;;;;;;11.77;7.53;;;7.40;65.30;;;;;;4972058;28;20063;-59
2023/03/08 09:27:40;;;;;;;15.18;7.50;;;7.40;65.50;;;;;;4974412;28;20041;-56
2023/03/08 09:30:09;;;;;;;13.70;6.95;;;7.50;65.50;;;;;;4974932;28;20034;-58
2023/03/08 09:32:35;;;;;;;9.55;6.47;;;7.50;65.60;;;;;;4973950;28;20462;-60
2023/03/08 09:35:01;;;;;;;10.63;6.40;;;7.50;65.50;;;;;;4975400;28;20046;-60
2023/03/08 09:37:27;;;;;;;12.50;6.00;;;7.60;65.60;;;;;;4974706;28;20049;-60
2023/03/08 09:39:53;;;;;;;9.13;5.55;;;7.70;65.70;;;;;;4974578;28;20046;-56
2023/03/08 09:42:19;;;;;;;9.25;5.40;;;7.70;65.70;;;;;;4974206;28;20399;-58
2023/03/08 09:45:14;;;;;;;9.23;5.50;;;7.80;65.60;;;;;;4976473;28;20129;-59
2023/03/08 09:47:48;;;;;;;6.72;4.70;;;7.90;65.80;;;;;;4974145;28;20031;-60
2023/03/08 09:50:30;;;;;;;7.28;4.72;;;8.00;65.70;;;;;;4974725;28;20062;-59
2023/03/08 09:53:25;;;;;;;12.00;5.05;;;8.00;65.50;;;;;;4975889;28;20043;-61
2023/03/08 09:56:03;;;;;;;7.43;4.93;;;8.10;65.70;;;;;;4975473;28;20050;-61
2023/03/08 09:58:34;;;;;;;6.18;4.25;;;8.20;65.70;;;;;;4973968;28;20574;-60
2023/03/08 10:01:21;;;;;;;7.97;4.68;;;8.30;65.60;;;;;;4974692;28;20038;-58
2023/03/08 10:03:50;;;;;;;6.07;4.22;;;8.40;65.90;;;;;;4972431;28;20506;-56
2023/03/08 10:06:27;;;;;;;6.72;4.38;;;8.50;65.80;;;;;;4975446;28;20038;-58
2023/03/08 10:09:28;;;;;;;7.90;4.68;;;8.60;66.70;;;;;;4972977;28;20467;-61
2023/03/08 10:12:18;;;;;;;5.68;4.05;;;8.70;65.80;;;;;;4971208;28;20031;-61
2023/03/08 10:14:56;;;;;;;8.75;4.32;;;8.80;65.80;;;;;;4975241;28;20037;-59
2023/03/08 10:17:34;;;;;;;5.57;3.70;;;8.90;65.70;;;;;;4973407;28;20268;-58
2023/03/08 10:20:13;;;;;;;9.95;3.83;;;9.00;65.50;;;;;;4975580;28;20461;-57
2023/03/08 10:22:41;;;;;;;8.27;3.58;;;9.10;65.50;;;;;;4973536;28;20039;-58
2023/03/08 10:25:27;;;;;;;8.80;3.40;;;9.20;65.30;;;;;;4973697;28;20521;-59
2023/03/08 10:27:55;;;;;;;7.07;3.58;;;9.30;65.20;;;;;;4977641;28;20514;-58
2023/03/08 10:30:24;;;;;;;9.82;3.65;;;9.40;65.00;;;;;;4977982;28;20043;-59
2023/03/08 10:32:58;;;;;;;6.75;3.60;;;9.40;64.80;;;;;;4978508;28;20057;-59
2023/03/08 10:35:36;;;;;;;5.25;3.30;;;9.50;64.90;;;;;;4978025;28;20461;-58
2023/03/08 10:38:03;;;;;;;4.63;3.53;;;9.60;64.90;;;;;;4977123;28;20054;-59
2023/03/08 10:40:29;;;;;;;8.10;3.67;;;9.70;65.30;;;;;;4976512;28;20042;-60
2023/03/08 10:43:04;;;;;;;8.60;3.15;;;9.70;64.70;;;;;;4977811;28;20039;-59
2023/03/08 10:45:30;;;;;;;7.07;3.35;;;9.80;64.70;;;;;;4978028;28;20050;-59
2023/03/08 10:48:04;;;;;;;6.88;3.17;;;9.80;64.80;;;;;;4979114;28;20042;-58
2023/03/08 10:50:34;;;;;;;8.68;3.30;;;9.90;64.70;;;;;;4981161;28;20047;-61
2023/03/08 10:53:15;;;;;;;3.58;3.13;;;10.00;64.70;;;;;;4977186;28;20097;-60
2023/03/08 10:55:50;;;;;;;4.00;3.08;;;10.00;64.80;;;;;;4979508;28;20093;-61
2023/03/08 10:58:38;;;;;;;9.35;3.58;;;10.00;64.60;;;;;;4975530;28;20091;-61
2023/03/08 11:01:26;;;;;;;11.32;3.20;;;10.10;65.60;;;;;;4976142;28;20065;-58
2023/03/08 11:04:11;;;;;;;5.45;3.00;;;10.20;64.80;;;;;;4977273;28;20063;-57
2023/03/08 11:06:37;;;;;;;5.90;4.20;;;10.20;64.80;;;;;;4977210;28;20410;-59
2023/03/08 11:09:17;;;;;;;9.23;3.35;;;10.20;64.70;;;;;;4973234;28;20042;-59
2023/03/08 11:11:43;;;;;;;4.15;2.83;;;10.20;64.60;;;;;;4977417;28;20045;-61
2023/03/08 11:14:10;;;;;;;4.53;3.00;;;10.30;64.60;;;;;;4979696;28;20046;-59
2023/03/08 11:16:59;;;;;;;4.80;2.58;;;10.40;64.70;;;;;;4977939;28;20521;-59
2023/03/08 11:19:31;;;;;;;6.10;2.60;;;10.40;64.90;;;;;;4977314;28;20030;-60
2023/03/08 11:22:15;;;;;;;2.72;2.22;;;10.40;64.70;;;;;;4976289;28;20093;-60
2023/03/08 11:25:02;;;;;;;5.57;2.92;;;10.40;64.70;;;;;;4975751;28;20077;-60
2023/03/08 11:27:59;;;;;;;5.43;2.53;;;10.40;64.70;;;;;;4978243;28;20413;-60
2023/03/08 11:30:55;;;;;;;5.15;2.72;;;10.50;65.00;;;;;;4976872;28;20506;-60
2023/03/08 11:33:39;;;;;;;;;;;10.50;65.90;;;;;;4978440;28;20035;-61
2023/03/08 11:36:29;;;;;;;4.53;2.58;;;10.60;65.00;;;;;;4975440;28;20388;-61
2023/03/08 11:39:23;;;;;;;4.07;2.65;;;10.60;65.20;;;;;;4976793;28;20035;-60
2023/03/08 11:41:55;;;;;;;3.83;2.70;;;10.50;65.50;;;;;;4961576;28;20038;-58
2023/03/08 11:44:32;;;;;;;5.53;2.60;;;10.50;65.50;;;;;;4978129;28;20031;-58
2023/03/08 11:47:34;;;;;;;3.40;2.60;;;10.50;65.60;;;;;;4977478;28;20494;-57
2023/03/08 11:50:30;;;;;;;2.63;2.40;;;10.50;65.70;;;;;;4977370;28;20454;-61
2023/03/08 11:52:58;;;;;;;;;;;10.60;66.20;;;;;;4976294;28;20038;-61
2023/03/08 11:56:01;;;;;;;3.65;1.70;;;10.60;66.60;;;;;;4975198;28;19917;-61
2023/03/08 11:58:32;;;;;;;3.22;2.00;;;10.60;66.40;;;;;;4978510;28;20066;-60
2023/03/08 12:01:06;;;;;;;2.25;1.90;;;10.60;66.40;;;;;;4979890;28;20034;-59
2023/03/08 12:03:45;;;;;;;2.20;2.00;;;10.60;66.40;;;;;;4980088;28;20039;-60
2023/03/08 12:06:20;;;;;;;3.92;2.25;;;10.60;66.70;;;;;;4980567;28;20906;-57
2023/03/08 12:08:53;;;;;;;2.88;1.90;;;10.70;66.80;;;;;;4976555;28;20086;-59
2023/03/08 12:11:23;;;;;;;3.35;2.00;;;10.70;66.90;;;;;;4976827;28;20030;-57
2023/03/08 12:13:57;;;;;;;3.97;1.90;;;10.70;66.90;;;;;;4978384;28;20557;-59
2023/03/08 12:16:36;;;;;;;2.67;1.65;;;10.70;67.00;;;;;;4975646;28;20046;-61
2023/03/08 12:19:26;;;;;;;2.22;1.45;;;10.80;67.20;;;;;;4976696;28;20044;-60
2023/03/08 12:22:09;;;;;;;3.08;1.38;;;10.80;67.50;;;;;;4975781;28;20030;-60
2023/03/08 12:24:42;;;;;;;2.30;1.38;;;10.80;67.60;;;;;;4973176;28;20346;-61
2023/03/08 12:27:27;;;;;;;2.42;1.23;;;10.80;67.50;;;;;;4973625;28;20073;-62
2023/03/08 12:30:15;;;;;;;6.03;1.30;;;10.80;67.90;;;;;;4975049;28;20117;-60
2023/03/08 12:32:42;;;;;;;0.90;0.90;;;10.80;68.30;;;;;;4975406;28;20030;-58
2023/03/08 12:35:27;;;;;;;1.88;0.90;;;10.80;68.40;;;;;;4977176;28;20093;-62
2023/03/08 12:37:56;;;;;;;1.70;0.80;;;10.80;68.90;;;;;;4975692;28;20050;-61
2023/03/08 12:40:46;;;;;;;2.35;0.93;;;10.90;68.90;;;;;;4972922;28;20077;-56
2023/03/08 12:43:18;;;;;;;1.20;0.98;;;10.90;69.70;;;;;;4976190;28;20046;-60
2023/03/08 12:46:05;;;;;;;1.30;0.50;;;10.90;69.50;;;;;;4974537;28;20030;-58
2023/03/08 12:48:43;;;;;;;5.28;0.80;;;11.00;69.50;;;;;;4972762;28;20034;-61
2023/03/08 12:51:11;;;;;;;0.65;0.63;;;11.00;70.40;;;;;;4971493;28;20178;-60
2023/03/08 12:53:38;;;;;;;0.88;0.60;;;11.00;69.80;;;;;;4970675;28;20096;-59
2023/03/08 12:56:22;;;;;;;3.83;0.70;;;11.00;70.30;;;;;;4977737;28;20046;-59
2023/03/08 12:58:48;;;;;;;3.57;0.60;;;11.10;70.70;;;;;;4977891;28;20039;-58